createdAt,value
2018-04-17T00:00:05.661Z,93.08
2018-04-17T00:01:05.615Z,92.99
2018-04-17T00:02:05.575Z,92.89
2018-04-17T00:03:05.528Z,93.18
2018-04-17T00:04:05.485Z,93.18
2018-04-17T00:05:05.447Z,93.65
2018-04-17T00:06:05.398Z,94.32
2018-04-17T00:07:05.354Z,94.74
2018-04-17T00:08:05.311Z,94.65
2018-04-17T00:09:05.264Z,94.93
2018-04-17T00:10:05.223Z,94.65
2018-04-17T00:11:05.178Z,94.70
2018-04-17T00:12:05.133Z,94.74
2018-04-17T00:13:05.088Z,94.18
2018-04-17T00:14:05.044Z,94.27
2018-04-17T00:15:05.000Z,94.18
2018-04-17T00:16:04.954Z,94.18
2018-04-17T00:17:04.912Z,94.37
2018-04-17T00:18:04.864Z,94.46
2018-04-17T00:19:04.820Z,94.74
2018-04-17T00:20:04.778Z,94.56
2018-04-17T00:21:04.733Z,94.46
2018-04-17T00:22:04.688Z,93.89
2018-04-17T00:23:04.644Z,94.18
2018-04-17T00:24:04.605Z,94.27
2018-04-17T00:25:04.555Z,93.98
2018-04-17T00:26:04.510Z,94.08
2018-04-17T00:27:04.466Z,93.98
2018-04-17T00:28:04.425Z,94.18
2018-04-17T00:29:04.382Z,93.89
2018-04-17T00:30:04.335Z,94.08
2018-04-17T00:31:04.290Z,94.27
2018-04-17T00:32:04.248Z,94.27
2018-04-17T00:33:04.201Z,94.93
2018-04-17T00:34:04.158Z,94.74
2018-04-17T00:35:04.112Z,94.65
2018-04-17T00:36:04.066Z,94.74
2018-04-17T00:37:04.021Z,94.84
2018-04-17T00:38:03.977Z,94.65
2018-04-17T00:39:03.936Z,94.84
2018-04-17T00:40:03.889Z,94.56
2018-04-17T00:41:03.845Z,94.46
2018-04-17T00:42:03.800Z,94.65
2018-04-17T00:43:03.757Z,94.65
2018-04-17T00:44:03.713Z,94.65
2018-04-17T00:45:03.671Z,94.56
2018-04-17T00:46:03.625Z,94.27
2018-04-17T00:47:03.578Z,94.65
2018-04-17T00:48:03.534Z,94.56
2018-04-17T00:49:03.491Z,94.56
2018-04-17T00:50:03.460Z,95.60
2018-04-17T00:51:03.405Z,95.46
2018-04-17T00:52:03.358Z,95.17
2018-04-17T00:53:03.313Z,95.27
2018-04-17T00:54:03.270Z,95.27
2018-04-17T00:55:03.222Z,95.65
2018-04-17T00:56:03.183Z,95.36
2018-04-17T00:57:03.135Z,95.36
2018-04-17T00:58:03.089Z,95.36
2018-04-17T00:59:03.045Z,95.36
2018-04-17T01:00:03.001Z,95.36
2018-04-17T01:01:02.959Z,95.36
2018-04-17T01:02:02.916Z,95.27
2018-04-17T01:03:02.868Z,95.46
2018-04-17T01:04:02.826Z,95.27
2018-04-17T01:05:02.784Z,95.17
2018-04-17T01:06:02.735Z,95.65
2018-04-17T01:07:02.692Z,95.94
2018-04-17T01:08:02.647Z,96.03
2018-04-17T01:09:02.605Z,96.79
2018-04-17T01:10:02.559Z,96.50
2018-04-17T01:11:02.517Z,96.79
2018-04-17T01:12:02.474Z,96.60
2018-04-17T01:13:02.427Z,96.50
2018-04-17T01:14:02.377Z,96.41
2018-04-17T01:15:02.335Z,96.89
2018-04-17T01:16:02.296Z,96.50
2018-04-17T01:17:02.244Z,96.50
2018-04-17T01:18:02.236Z,96.50
2018-04-17T01:19:02.156Z,96.50
2018-04-17T01:20:02.112Z,96.03
2018-04-17T01:21:02.066Z,96.22
2018-04-17T01:22:02.022Z,95.94
2018-04-17T01:23:01.982Z,95.84
2018-04-17T01:24:01.931Z,95.94
2018-04-17T01:25:01.887Z,96.22
2018-04-17T01:26:01.844Z,96.03
2018-04-17T01:27:01.797Z,96.31
2018-04-17T01:28:01.754Z,96.60
2018-04-17T01:29:01.711Z,95.94
2018-04-17T01:30:01.665Z,95.75
2018-04-17T01:31:01.618Z,96.12
2018-04-17T01:32:01.577Z,96.03
2018-04-17T01:33:01.531Z,96.50
2018-04-17T01:34:01.484Z,96.31
2018-04-17T01:35:01.441Z,96.60
2018-04-17T01:36:01.395Z,96.79
2018-04-17T01:37:01.349Z,97.08
2018-04-17T01:38:01.311Z,96.60
2018-04-17T01:39:01.263Z,97.36
2018-04-17T01:40:01.216Z,97.27
2018-04-17T01:41:01.171Z,97.36
2018-04-17T01:42:01.127Z,97.36
2018-04-17T01:43:01.081Z,97.27
2018-04-17T01:44:01.038Z,96.69
2018-04-17T01:45:00.998Z,97.45
2018-04-17T01:46:00.953Z,97.55
2018-04-17T01:47:00.907Z,97.08
2018-04-17T01:48:00.856Z,96.69
2018-04-17T01:49:00.816Z,96.79
2018-04-17T01:50:00.767Z,97.08
2018-04-17T01:51:00.722Z,96.79
2018-04-17T01:52:00.680Z,96.79
2018-04-17T01:53:00.636Z,96.50
2018-04-17T01:54:00.592Z,96.79
2018-04-17T01:55:00.544Z,96.65
2018-04-17T01:56:00.501Z,97.08
2018-04-17T01:57:00.456Z,97.41
2018-04-17T01:58:00.414Z,97.31
2018-04-17T01:59:00.366Z,97.12
2018-04-17T02:00:00.323Z,97.22
2018-04-17T02:01:00.276Z,97.41
2018-04-17T02:02:00.234Z,97.03
2018-04-17T02:03:00.189Z,97.12
2018-04-17T02:04:00.142Z,97.03
2018-04-17T02:05:00.097Z,97.22
2018-04-17T02:06:00.057Z,97.22
2018-04-17T02:07:00.008Z,97.22
2018-04-17T02:07:59.969Z,97.41
2018-04-17T02:08:59.921Z,97.31
2018-04-17T02:09:59.873Z,97.88
2018-04-17T02:10:59.829Z,98.07
2018-04-17T02:11:59.785Z,97.78
2018-04-17T02:12:59.742Z,97.88
2018-04-17T02:13:59.694Z,98.07
2018-04-17T02:14:59.651Z,98.07
2018-04-17T02:15:59.612Z,97.78
2018-04-17T02:16:59.560Z,97.50
2018-04-17T02:17:59.514Z,97.97
2018-04-17T02:18:59.469Z,97.97
2018-04-17T02:19:59.425Z,98.17
2018-04-17T02:20:59.380Z,98.17
2018-04-17T02:21:59.337Z,98.17
2018-04-17T02:22:59.288Z,98.36
2018-04-17T02:23:59.247Z,98.07
2018-04-17T02:24:59.203Z,97.50
2018-04-17T02:25:59.162Z,97.69
2018-04-17T02:26:59.109Z,97.88
2018-04-17T02:27:59.063Z,97.50
2018-04-17T02:28:59.020Z,98.17
2018-04-17T02:29:58.976Z,98.36
2018-04-17T02:30:58.931Z,97.97
2018-04-17T02:31:58.884Z,98.17
2018-04-17T02:32:58.839Z,98.07
2018-04-17T02:33:58.798Z,98.45
2018-04-17T02:34:58.751Z,98.17
2018-04-17T02:35:58.708Z,98.17
2018-04-17T02:36:58.661Z,98.17
2018-04-17T02:37:58.618Z,98.26
2018-04-17T02:38:58.577Z,98.36
2018-04-17T02:39:58.529Z,98.45
2018-04-17T02:40:58.482Z,98.07
2018-04-17T02:41:58.442Z,98.17
2018-04-17T02:42:58.390Z,98.36
2018-04-17T02:43:58.354Z,97.78
2018-04-17T02:44:58.302Z,97.97
2018-04-17T02:45:58.257Z,97.69
2018-04-17T02:46:58.208Z,97.97
2018-04-17T02:47:58.165Z,98.07
2018-04-17T02:48:58.120Z,97.69
2018-04-17T02:49:58.074Z,98.17
2018-04-17T02:50:58.030Z,97.78
2018-04-17T02:51:57.983Z,98.45
2018-04-17T02:52:57.941Z,98.07
2018-04-17T02:53:57.893Z,98.07
2018-04-17T02:54:57.851Z,97.97
2018-04-17T02:55:57.804Z,97.78
2018-04-17T02:56:57.758Z,98.17
2018-04-17T02:57:57.715Z,97.78
2018-04-17T02:58:57.670Z,98.36
2018-04-17T02:59:57.627Z,98.26
2018-04-17T03:00:57.577Z,97.97
2018-04-17T03:01:57.533Z,98.21
2018-04-17T03:02:57.486Z,98.17
2018-04-17T03:03:57.445Z,98.45
2018-04-17T03:04:57.396Z,98.31
2018-04-17T03:05:57.355Z,98.17
2018-04-17T03:06:57.304Z,98.97
2018-04-17T03:07:57.259Z,98.83
2018-04-17T03:08:57.215Z,98.79
2018-04-17T03:09:57.171Z,98.93
2018-04-17T03:10:57.126Z,98.88
2018-04-17T03:11:57.092Z,98.50
2018-04-17T03:12:57.037Z,99.16
2018-04-17T03:13:56.993Z,99.07
2018-04-17T03:14:56.944Z,98.79
2018-04-17T03:15:56.898Z,98.88
2018-04-17T03:16:56.855Z,98.69
2018-04-17T03:17:56.811Z,98.69
2018-04-17T03:18:56.763Z,98.88
2018-04-17T03:19:56.720Z,99.16
2018-04-17T03:20:56.677Z,98.40
2018-04-17T03:21:56.631Z,98.59
2018-04-17T03:22:56.584Z,99.16
2018-04-17T03:23:56.538Z,98.59
2018-04-17T03:24:56.496Z,99.07
2018-04-17T03:25:56.479Z,98.79
2018-04-17T03:26:56.406Z,98.79
2018-04-17T03:27:56.360Z,98.69
2018-04-17T03:28:56.311Z,98.59
2018-04-17T03:29:56.271Z,99.07
2018-04-17T03:30:56.223Z,99.26
2018-04-17T03:31:56.180Z,99.16
2018-04-17T03:32:56.129Z,99.16
2018-04-17T03:33:56.088Z,98.88
2018-04-17T03:34:56.039Z,99.16
2018-04-17T03:35:55.999Z,99.54
2018-04-17T03:36:55.956Z,99.26
2018-04-17T03:37:55.908Z,99.26
2018-04-17T03:38:55.860Z,99.44
2018-04-17T03:39:55.814Z,99.16
2018-04-17T03:40:55.768Z,99.26
2018-04-17T03:41:55.728Z,99.26
2018-04-17T03:42:55.677Z,99.99
2018-04-17T03:43:55.631Z,99.64
2018-04-17T03:44:55.592Z,99.35
2018-04-17T03:45:55.545Z,99.44
2018-04-17T03:46:55.496Z,99.44
2018-04-17T03:47:55.451Z,99.99
2018-04-17T03:48:55.405Z,99.99
2018-04-17T03:49:55.364Z,99.64
2018-04-17T03:50:55.314Z,99.83
2018-04-17T03:51:55.269Z,99.54
2018-04-17T03:52:55.225Z,99.64
2018-04-17T03:53:55.182Z,99.44
2018-04-17T03:54:55.139Z,99.64
2018-04-17T03:55:55.091Z,99.83
2018-04-17T03:56:55.060Z,99.83
2018-04-17T03:57:55.008Z,99.44
2018-04-17T03:58:54.955Z,99.64
2018-04-17T03:59:54.913Z,99.73
2018-04-17T04:00:54.864Z,99.44
2018-04-17T04:01:54.821Z,99.73
2018-04-17T04:02:54.771Z,99.92
2018-04-17T04:03:54.727Z,99.99
2018-04-17T04:04:54.682Z,99.99
2018-04-17T04:05:54.650Z,99.99
2018-04-17T04:06:54.596Z,99.99
2018-04-17T04:07:54.553Z,99.99
2018-04-17T04:08:54.505Z,99.99
2018-04-17T04:09:54.459Z,99.99
2018-04-17T04:10:54.415Z,99.99
2018-04-17T04:11:54.368Z,99.99
2018-04-17T04:12:54.322Z,99.99
2018-04-17T04:13:54.277Z,99.99
2018-04-17T04:14:54.227Z,99.99
2018-04-17T04:15:54.184Z,99.99
2018-04-17T04:16:54.138Z,99.99
2018-04-17T04:17:54.094Z,99.99
2018-04-17T04:18:54.058Z,99.99
2018-04-17T04:19:54.010Z,99.99
2018-04-17T04:20:53.956Z,99.99
2018-04-17T04:21:53.914Z,99.99
2018-04-17T04:22:53.877Z,99.64
2018-04-17T04:23:53.822Z,99.92
2018-04-17T04:24:53.776Z,99.73
2018-04-17T04:25:53.733Z,99.83
2018-04-17T04:26:53.689Z,99.73
2018-04-17T04:27:53.648Z,99.83
2018-04-17T04:28:53.651Z,99.35
2018-04-17T04:29:53.554Z,99.35
2018-04-17T04:30:53.507Z,99.64
2018-04-17T04:31:53.465Z,99.73
2018-04-17T04:32:53.419Z,99.73
2018-04-17T04:33:53.370Z,99.99
2018-04-17T04:34:53.381Z,99.35
2018-04-17T04:35:53.276Z,99.16
2018-04-17T04:36:53.233Z,99.26
2018-04-17T04:37:53.192Z,99.35
2018-04-17T04:38:53.141Z,99.26
2018-04-17T04:39:53.098Z,99.26
2018-04-17T04:40:53.053Z,99.26
2018-04-17T04:41:53.007Z,99.54
2018-04-17T04:42:52.959Z,99.73
2018-04-17T04:43:52.919Z,99.73
2018-04-17T04:44:52.872Z,99.54
2018-04-17T04:45:52.829Z,99.73
2018-04-17T04:46:52.782Z,99.73
2018-04-17T04:47:52.734Z,99.92
2018-04-17T04:48:52.692Z,99.64
2018-04-17T04:49:52.645Z,99.73
2018-04-17T04:50:52.598Z,99.99
2018-04-17T04:51:52.551Z,99.99
2018-04-17T04:52:52.511Z,99.99
2018-04-17T04:53:52.461Z,99.99
2018-04-17T04:54:52.418Z,99.99
2018-04-17T04:55:52.370Z,99.99
2018-04-17T04:56:52.324Z,99.99
2018-04-17T04:57:52.289Z,99.99
2018-04-17T04:58:52.234Z,99.99
2018-04-17T04:59:52.188Z,99.73
2018-04-17T05:00:52.143Z,99.99
2018-04-17T05:01:52.098Z,99.83
2018-04-17T05:02:52.061Z,99.83
2018-04-17T05:03:52.006Z,99.92
2018-04-17T05:04:51.977Z,99.64
2018-04-17T05:05:51.917Z,99.73
2018-04-17T05:06:51.872Z,99.92
2018-04-17T05:07:51.825Z,99.73
2018-04-17T05:08:51.782Z,99.99
2018-04-17T05:09:51.738Z,99.99
2018-04-17T05:10:51.689Z,99.54
2018-04-17T05:11:51.649Z,99.92
2018-04-17T05:12:51.623Z,99.35
2018-04-17T05:13:51.555Z,99.35
2018-04-17T05:14:51.515Z,99.73
2018-04-17T05:15:51.465Z,99.64
2018-04-17T05:16:51.416Z,99.99
2018-04-17T05:17:51.374Z,99.64
2018-04-17T05:18:51.326Z,99.99
2018-04-17T05:19:51.281Z,99.99
2018-04-17T05:20:51.237Z,99.99
2018-04-17T05:21:51.196Z,99.99
2018-04-17T05:22:51.147Z,99.99
2018-04-17T05:23:51.123Z,99.99
2018-04-17T05:24:51.054Z,99.99
2018-04-17T05:25:51.012Z,99.99
2018-04-17T05:26:50.963Z,99.99
2018-04-17T05:27:50.919Z,99.99
2018-04-17T05:28:50.872Z,99.99
2018-04-17T05:29:50.828Z,99.99
2018-04-17T05:30:50.785Z,99.99
2018-04-17T05:31:50.740Z,99.99
2018-04-17T05:32:50.699Z,99.99
2018-04-17T05:33:50.645Z,99.99
2018-04-17T05:34:50.603Z,99.99
2018-04-17T05:35:50.557Z,99.99
2018-04-17T05:36:50.513Z,99.99
2018-04-17T05:37:50.467Z,99.99
2018-04-17T05:38:50.417Z,99.99
2018-04-17T05:39:50.375Z,99.99
2018-04-17T05:40:50.327Z,99.99
2018-04-17T05:41:50.287Z,99.99
2018-04-17T05:42:50.238Z,99.99
2018-04-17T05:43:50.196Z,99.99
2018-04-17T05:44:50.147Z,99.99
2018-04-17T05:45:50.107Z,99.99
2018-04-17T05:46:50.062Z,99.99
2018-04-17T05:47:49.995Z,99.99
2018-04-17T05:48:49.972Z,99.99
2018-04-17T05:49:49.917Z,99.99
2018-04-17T05:50:49.884Z,99.99
2018-04-17T05:51:49.819Z,99.99
2018-04-17T05:52:49.773Z,99.99
2018-04-17T05:53:49.726Z,99.99
2018-04-17T05:54:49.681Z,99.99
2018-04-17T05:55:49.653Z,99.99
2018-04-17T05:56:49.597Z,99.99
2018-04-17T05:57:49.548Z,99.99
2018-04-17T05:58:49.504Z,99.99
2018-04-17T05:59:49.497Z,99.99
2018-04-17T06:00:49.412Z,99.99
2018-04-17T06:01:49.370Z,99.99
2018-04-17T06:02:49.330Z,99.99
2018-04-17T06:03:49.283Z,99.99
2018-04-17T06:04:49.231Z,99.99
2018-04-17T06:05:49.185Z,99.99
2018-04-17T06:06:49.141Z,99.99
2018-04-17T06:07:49.097Z,99.99
2018-04-17T06:08:49.052Z,99.99
2018-04-17T06:09:49.016Z,99.99
2018-04-17T06:10:48.964Z,99.99
2018-04-17T06:11:48.918Z,99.99
2018-04-17T06:12:48.877Z,99.99
2018-04-17T06:13:48.827Z,99.99
2018-04-17T06:14:48.783Z,99.99
2018-04-17T06:15:48.738Z,99.99
2018-04-17T06:16:48.698Z,99.99
2018-04-17T06:17:48.652Z,99.99
2018-04-17T06:18:48.606Z,99.99
2018-04-17T06:19:48.560Z,99.99
2018-04-17T06:20:48.515Z,99.99
2018-04-17T06:21:48.471Z,99.99
2018-04-17T06:22:48.428Z,99.99
2018-04-17T06:23:48.383Z,99.99
2018-04-17T06:24:48.338Z,99.99
2018-04-17T06:25:48.294Z,99.99
2018-04-17T06:26:48.251Z,99.99
2018-04-17T06:27:48.206Z,99.99
2018-04-17T06:28:48.162Z,99.99
2018-04-17T06:29:48.119Z,99.99
2018-04-17T06:30:48.070Z,99.99
2018-04-17T06:31:48.027Z,99.99
2018-04-17T06:32:47.986Z,99.99
2018-04-17T06:33:47.942Z,99.99
2018-04-17T06:34:47.899Z,99.99
2018-04-17T06:35:47.850Z,99.99
2018-04-17T06:36:47.806Z,99.99
2018-04-17T06:37:47.762Z,99.99
2018-04-17T06:38:47.717Z,99.99
2018-04-17T06:39:47.672Z,99.99
2018-04-17T06:40:47.630Z,99.99
2018-04-17T06:41:47.650Z,99.99
2018-04-17T06:42:47.544Z,99.99
2018-04-17T06:43:47.497Z,99.99
2018-04-17T06:44:47.453Z,99.99
2018-04-17T06:45:47.419Z,99.99
2018-04-17T06:46:47.367Z,99.99
2018-04-17T06:47:47.330Z,99.99
2018-04-17T06:48:47.284Z,99.99
2018-04-17T06:49:47.239Z,99.99
2018-04-17T06:50:47.192Z,99.65
2018-04-17T06:51:47.153Z,98.08
2018-04-17T06:52:47.147Z,98.27
2018-04-17T06:53:47.061Z,97.61
2018-04-17T06:54:47.019Z,97.41
2018-04-17T06:55:46.977Z,96.56
2018-04-17T06:56:46.931Z,95.89
2018-04-17T06:57:46.886Z,94.17
2018-04-17T06:58:46.844Z,94.46
2018-04-17T06:59:46.798Z,95.46
2018-04-17T07:00:46.760Z,94.51
2018-04-17T07:01:46.716Z,94.12
2018-04-17T07:02:46.670Z,93.27
2018-04-17T07:03:46.628Z,93.36
2018-04-17T07:04:46.585Z,94.03
2018-04-17T07:05:46.543Z,92.03
2018-04-17T07:06:46.501Z,91.36
2018-04-17T07:07:46.465Z,90.73
2018-04-17T07:08:46.416Z,90.17
2018-04-17T07:09:46.368Z,89.69
2018-04-17T07:10:46.325Z,89.69
2018-04-17T07:11:46.286Z,88.35
2018-04-17T07:12:46.248Z,88.01
2018-04-17T07:13:46.198Z,88.30
2018-04-17T07:14:46.156Z,88.78
2018-04-17T07:15:46.113Z,87.63
2018-04-17T07:16:46.069Z,87.06
2018-04-17T07:17:46.027Z,88.11
2018-04-17T07:18:45.983Z,86.01
2018-04-17T07:19:45.940Z,84.86
2018-04-17T07:20:45.909Z,83.86
2018-04-17T07:21:45.862Z,83.76
2018-04-17T07:22:45.813Z,83.57
2018-04-17T07:23:45.782Z,83.28
2018-04-17T07:24:45.729Z,82.94
2018-04-17T07:25:45.687Z,81.26
2018-04-17T07:26:45.644Z,79.77
2018-04-17T07:27:45.602Z,77.70
2018-04-17T07:28:45.561Z,74.77
2018-04-17T07:29:45.523Z,73.47
2018-04-17T07:30:45.477Z,71.40
2018-04-17T07:31:45.437Z,70.19
2018-04-17T07:32:45.396Z,68.30
2018-04-17T07:33:45.355Z,67.73
2018-04-17T07:34:45.327Z,66.71
2018-04-17T07:35:45.273Z,65.59
2018-04-17T07:36:45.231Z,63.76
2018-04-17T07:37:45.188Z,63.12
2018-04-17T07:38:45.151Z,60.05
2018-04-17T07:39:45.109Z,58.92
2018-04-17T07:40:45.068Z,58.57
2018-04-17T07:41:45.034Z,57.70
2018-04-17T07:42:44.990Z,58.40
2018-04-17T07:43:44.951Z,59.56
2018-04-17T07:44:44.923Z,56.41
2018-04-17T07:45:44.871Z,54.87
2018-04-17T07:46:44.833Z,54.61
2018-04-17T07:47:44.802Z,54.83
2018-04-17T07:48:44.757Z,53.09
2018-04-17T07:49:44.718Z,51.77
2018-04-17T07:50:44.679Z,51.77
2018-04-17T07:51:44.642Z,53.13
2018-04-17T07:52:44.608Z,51.12
2018-04-17T07:53:44.569Z,51.99
2018-04-17T07:54:44.531Z,52.11
2018-04-17T07:55:44.519Z,50.57
2018-04-17T07:56:44.457Z,51.17
2018-04-17T07:57:44.425Z,49.34
2018-04-17T07:58:44.388Z,49.05
2018-04-17T07:59:44.347Z,47.72
2018-04-17T08:00:44.310Z,46.68
2018-04-17T08:01:44.275Z,46.30
2018-04-17T08:02:44.245Z,47.94
2018-04-17T08:03:44.204Z,46.61
2018-04-17T08:04:44.166Z,45.93
2018-04-17T08:05:44.131Z,44.48
2018-04-17T08:06:44.093Z,44.60
2018-04-17T08:07:44.058Z,44.70
2018-04-17T08:08:44.023Z,44.33
2018-04-17T08:09:43.989Z,42.40
2018-04-17T08:10:43.951Z,41.62
2018-04-17T08:11:43.917Z,41.45
2018-04-17T08:12:43.882Z,39.80
2018-04-17T08:13:43.859Z,39.90
2018-04-17T08:14:43.810Z,40.48
2018-04-17T08:15:43.781Z,41.64
2018-04-17T08:16:43.746Z,42.80
2018-04-17T08:17:43.708Z,41.08
2018-04-17T08:18:43.671Z,39.82
2018-04-17T08:19:43.636Z,39.82
2018-04-17T08:20:43.601Z,39.16
2018-04-17T08:21:43.570Z,39.94
2018-04-17T08:22:43.537Z,38.68
2018-04-17T08:23:43.498Z,40.81
2018-04-17T08:24:43.463Z,39.94
2018-04-17T08:25:43.430Z,39.37
2018-04-17T08:26:43.397Z,39.76
2018-04-17T08:27:43.367Z,37.92
2018-04-17T08:28:43.326Z,38.52
2018-04-17T08:29:43.295Z,37.74
2018-04-17T08:30:43.256Z,37.84
2018-04-17T08:31:43.224Z,36.87
2018-04-17T08:32:43.188Z,36.48
2018-04-17T08:33:43.157Z,36.48
2018-04-17T08:34:43.119Z,37.94
2018-04-17T08:35:43.084Z,37.45
2018-04-17T08:36:43.052Z,36.38
2018-04-17T08:37:43.020Z,37.26
2018-04-17T08:38:42.990Z,36.50
2018-04-17T08:39:42.951Z,36.69
2018-04-17T08:40:42.921Z,36.79
2018-04-17T08:41:42.890Z,37.66
2018-04-17T08:42:42.863Z,38.06
2018-04-17T08:43:42.813Z,37.49
2018-04-17T08:44:42.786Z,37.10
2018-04-17T08:45:42.753Z,36.81
2018-04-17T08:46:42.712Z,35.64
2018-04-17T08:47:42.680Z,35.74
2018-04-17T08:48:42.645Z,36.73
2018-04-17T08:49:42.612Z,35.27
2018-04-17T08:50:42.577Z,35.37
2018-04-17T08:51:42.541Z,35.27
2018-04-17T08:52:42.508Z,37.51
2018-04-17T08:53:42.474Z,35.76
2018-04-17T08:54:42.444Z,34.50
2018-04-17T08:55:42.409Z,34.59
2018-04-17T08:56:42.376Z,34.01
2018-04-17T08:57:42.339Z,34.79
2018-04-17T08:58:42.306Z,34.50
2018-04-17T08:59:42.276Z,34.50
2018-04-17T09:00:42.292Z,33.81
2018-04-17T09:01:42.205Z,33.23
2018-04-17T09:02:42.167Z,34.30
2018-04-17T09:03:42.135Z,33.72
2018-04-17T09:04:42.101Z,36.15
2018-04-17T09:05:42.067Z,34.30
2018-04-17T09:06:42.032Z,35.27
2018-04-17T09:07:42.003Z,34.30
2018-04-17T09:08:41.966Z,35.17
2018-04-17T09:09:41.932Z,34.40
2018-04-17T09:10:41.899Z,32.73
2018-04-17T09:11:41.896Z,33.99
2018-04-17T09:12:41.831Z,33.99
2018-04-17T09:13:41.797Z,35.16
2018-04-17T09:14:41.768Z,35.25
2018-04-17T09:15:41.729Z,35.43
2018-04-17T09:16:41.698Z,35.05
2018-04-17T09:17:41.663Z,34.85
2018-04-17T09:18:41.642Z,33.88
2018-04-17T09:19:41.595Z,35.53
2018-04-17T09:20:41.562Z,34.46
2018-04-17T09:21:41.530Z,33.29
2018-04-17T09:22:41.501Z,36.50
2018-04-17T09:23:41.463Z,34.56
2018-04-17T09:24:41.427Z,32.71
2018-04-17T09:25:41.394Z,34.54
2018-04-17T09:26:41.360Z,34.27
2018-04-17T09:27:41.327Z,34.25
2018-04-17T09:28:41.293Z,35.71
2018-04-17T09:29:41.262Z,35.03
2018-04-17T09:30:41.225Z,34.06
2018-04-17T09:31:41.192Z,35.51
2018-04-17T09:32:41.159Z,33.94
2018-04-17T09:33:41.132Z,35.30
2018-04-17T09:34:41.094Z,35.49
2018-04-17T09:35:41.061Z,35.30
2018-04-17T09:36:41.025Z,37.24
2018-04-17T09:37:40.998Z,35.69
2018-04-17T09:38:40.959Z,34.61
2018-04-17T09:39:40.923Z,35.38
2018-04-17T09:40:40.891Z,36.25
2018-04-17T09:41:40.857Z,37.03
2018-04-17T09:42:40.826Z,37.23
2018-04-17T09:43:40.789Z,36.35
2018-04-17T09:44:40.761Z,36.83
2018-04-17T09:45:40.722Z,36.83
2018-04-17T09:46:40.687Z,36.74
2018-04-17T09:47:40.660Z,36.85
2018-04-17T09:48:40.622Z,35.98
2018-04-17T09:49:40.589Z,35.69
2018-04-17T09:50:40.578Z,36.56
2018-04-17T09:51:40.519Z,36.56
2018-04-17T09:52:40.486Z,36.85
2018-04-17T09:53:40.453Z,35.69
2018-04-17T09:54:40.435Z,35.40
2018-04-17T09:55:40.386Z,35.69
2018-04-17T09:56:40.353Z,36.18
2018-04-17T09:57:40.318Z,37.15
2018-04-17T09:58:40.286Z,36.46
2018-04-17T09:59:40.253Z,37.34
2018-04-17T10:00:40.220Z,34.43
2018-04-17T10:01:40.182Z,34.91
2018-04-17T10:02:40.149Z,35.21
2018-04-17T10:03:40.114Z,35.57
2018-04-17T10:04:40.087Z,35.38
2018-04-17T10:05:40.045Z,35.77
2018-04-17T10:06:40.013Z,35.19
2018-04-17T10:07:39.981Z,37.23
2018-04-17T10:08:39.948Z,37.32
2018-04-17T10:09:39.913Z,36.35
2018-04-17T10:10:39.877Z,34.80
2018-04-17T10:11:39.843Z,34.70
2018-04-17T10:12:39.808Z,34.70
2018-04-17T10:13:39.776Z,35.09
2018-04-17T10:14:39.739Z,36.74
2018-04-17T10:15:39.707Z,36.44
2018-04-17T10:16:39.670Z,37.23
2018-04-17T10:17:39.644Z,37.51
2018-04-17T10:18:39.602Z,36.44
2018-04-17T10:19:39.567Z,35.19
2018-04-17T10:20:39.535Z,35.28
2018-04-17T10:21:39.505Z,35.67
2018-04-17T10:22:39.468Z,36.44
2018-04-17T10:23:39.430Z,36.06
2018-04-17T10:24:39.399Z,35.09
2018-04-17T10:25:39.367Z,36.25
2018-04-17T10:26:39.331Z,36.54
2018-04-17T10:27:39.290Z,34.89
2018-04-17T10:28:39.257Z,37.13
2018-04-17T10:29:39.225Z,36.83
2018-04-17T10:30:39.192Z,35.57
2018-04-17T10:31:39.153Z,34.61
2018-04-17T10:32:39.125Z,35.77
2018-04-17T10:33:39.084Z,36.66
2018-04-17T10:34:39.052Z,35.11
2018-04-17T10:35:39.015Z,32.78
2018-04-17T10:36:38.984Z,32.78
2018-04-17T10:37:38.948Z,34.02
2018-04-17T10:38:38.918Z,34.12
2018-04-17T10:39:38.924Z,34.22
2018-04-17T10:40:38.857Z,35.49
2018-04-17T10:41:38.811Z,35.21
2018-04-17T10:42:38.773Z,34.72
2018-04-17T10:43:38.739Z,35.21
2018-04-17T10:44:38.703Z,34.04
2018-04-17T10:45:38.667Z,34.41
2018-04-17T10:46:38.637Z,33.92
2018-04-17T10:47:38.605Z,34.89
2018-04-17T10:48:38.570Z,35.67
2018-04-17T10:49:38.530Z,34.99
2018-04-17T10:50:38.500Z,35.09
2018-04-17T10:51:38.459Z,34.80
2018-04-17T10:52:38.432Z,36.25
2018-04-17T10:53:38.400Z,36.74
2018-04-17T10:54:38.357Z,36.36
2018-04-17T10:55:38.318Z,36.27
2018-04-17T10:56:38.288Z,35.40
2018-04-17T10:57:38.250Z,33.94
2018-04-17T10:58:38.215Z,33.94
2018-04-17T10:59:38.180Z,34.43
2018-04-17T11:00:38.150Z,37.34
2018-04-17T11:01:38.113Z,36.56
2018-04-17T11:02:38.081Z,36.10
2018-04-17T11:03:38.048Z,35.21
2018-04-17T11:04:38.061Z,35.90
2018-04-17T11:05:37.977Z,36.19
2018-04-17T11:06:37.938Z,34.06
2018-04-17T11:07:37.911Z,33.67
2018-04-17T11:08:37.869Z,34.06
2018-04-17T11:09:37.840Z,34.56
2018-04-17T11:10:37.800Z,34.27
2018-04-17T11:11:37.764Z,33.29
2018-04-17T11:12:37.732Z,32.91
2018-04-17T11:13:37.696Z,33.59
2018-04-17T11:14:37.659Z,34.17
2018-04-17T11:15:37.625Z,32.64
2018-04-17T11:16:37.603Z,33.53
2018-04-17T11:17:37.560Z,32.26
2018-04-17T11:18:37.523Z,33.44
2018-04-17T11:19:37.491Z,33.07
2018-04-17T11:20:37.455Z,31.34
2018-04-17T11:21:37.422Z,31.06
2018-04-17T11:22:37.386Z,30.68
2018-04-17T11:23:39.658Z,30.99
2018-04-17T11:24:37.320Z,30.54
2018-04-17T11:25:37.293Z,29.08
2018-04-17T11:26:37.256Z,28.14
2018-04-17T11:27:37.225Z,28.34
2018-04-17T11:28:37.187Z,25.92
2018-04-17T11:29:37.159Z,25.93
2018-04-17T11:30:37.123Z,26.14
2018-04-17T11:31:37.090Z,26.23
2018-04-17T11:32:37.060Z,25.17
2018-04-17T11:33:37.030Z,24.49
2018-04-17T11:34:37.017Z,24.31
2018-04-17T11:35:36.962Z,24.52
2018-04-17T11:36:36.933Z,23.25
2018-04-17T11:37:36.899Z,22.77
2018-04-17T11:38:36.868Z,23.85
2018-04-17T11:39:36.836Z,23.28
2018-04-17T11:40:36.806Z,22.09
2018-04-17T11:41:36.780Z,23.18
2018-04-17T11:42:36.743Z,21.61
2018-04-17T11:43:36.711Z,22.41
2018-04-17T11:44:36.683Z,22.12
2018-04-17T11:45:36.651Z,20.64
2018-04-17T11:46:36.617Z,20.95
2018-04-17T11:47:36.586Z,20.75
2018-04-17T11:48:36.570Z,21.06
2018-04-17T11:49:36.527Z,18.59
2018-04-17T11:50:36.497Z,18.98
2018-04-17T11:51:36.465Z,18.79
2018-04-17T11:52:36.438Z,20.37
2018-04-17T11:53:36.404Z,20.96
2018-04-17T11:54:36.376Z,20.67
2018-04-17T11:55:36.347Z,19.49
2018-04-17T11:56:36.313Z,19.10
2018-04-17T11:57:36.285Z,19.29
2018-04-17T11:58:36.250Z,18.70
2018-04-17T11:59:36.224Z,18.90
2018-04-17T12:00:36.196Z,19.29
2018-04-17T12:01:36.161Z,19.09
2018-04-17T12:02:36.134Z,18.79
2018-04-17T12:03:36.101Z,19.49
2018-04-17T12:04:36.070Z,17.92
2018-04-17T12:05:36.041Z,18.23
2018-04-17T12:06:36.009Z,18.04
2018-04-17T12:07:35.980Z,18.23
2018-04-17T12:08:35.951Z,18.04
2018-04-17T12:09:35.926Z,18.04
2018-04-17T12:10:35.892Z,17.94
2018-04-17T12:11:35.862Z,17.65
2018-04-17T12:12:35.832Z,17.06
2018-04-17T12:13:35.800Z,17.35
2018-04-17T12:14:35.789Z,17.75
2018-04-17T12:15:35.744Z,19.42
2018-04-17T12:16:35.717Z,17.66
2018-04-17T12:17:35.682Z,17.07
2018-04-17T12:18:35.650Z,17.26
2018-04-17T12:19:35.620Z,16.95
2018-04-17T12:20:35.595Z,17.24
2018-04-17T12:21:35.561Z,17.94
2018-04-17T12:22:35.532Z,17.94
2018-04-17T12:23:35.502Z,18.44
2018-04-17T12:24:39.826Z,19.32
2018-04-17T12:25:35.444Z,17.94
2018-04-17T12:26:35.412Z,16.86
2018-04-17T12:27:35.382Z,16.55
2018-04-17T12:28:35.397Z,16.66
2018-04-17T12:29:35.336Z,17.65
2018-04-17T12:30:35.293Z,17.26
2018-04-17T12:31:35.264Z,17.26
2018-04-17T12:32:35.238Z,17.36
2018-04-17T12:33:35.206Z,16.47
2018-04-17T12:34:35.196Z,16.55
2018-04-17T12:35:35.147Z,16.94
2018-04-17T12:36:35.118Z,17.83
2018-04-17T12:37:35.130Z,17.55
2018-04-17T12:38:35.061Z,18.34
2018-04-17T12:39:35.028Z,18.44
2018-04-17T12:40:35.005Z,17.85
2018-04-17T12:41:34.971Z,17.26
2018-04-17T12:42:34.954Z,17.96
2018-04-17T12:43:34.912Z,16.78
2018-04-17T12:44:34.883Z,16.39
2018-04-17T12:45:34.853Z,15.89
2018-04-17T12:46:34.837Z,15.81
2018-04-17T12:47:34.794Z,15.61
2018-04-17T12:48:34.768Z,15.22
2018-04-17T12:49:34.741Z,15.22
2018-04-17T12:50:34.707Z,14.73
2018-04-17T12:51:34.679Z,14.24